createdAt,value
2018-09-02T00:00:24.945Z,16.70
2018-09-02T00:02:53.533Z,15.08
2018-09-02T00:05:22.104Z,14.38
2018-09-02T00:07:50.642Z,14.95
2018-09-02T00:10:19.161Z,14.68
2018-09-02T00:12:47.959Z,14.55
2018-09-02T00:15:16.501Z,16.40
2018-09-02T00:17:45.124Z,17.45
2018-09-02T00:20:13.684Z,17.12
2018-09-02T00:22:42.213Z,15.32
2018-09-02T00:25:10.902Z,15.90
2018-09-02T00:27:39.460Z,17.80
2018-09-02T00:30:08.618Z,17.45
2018-09-02T00:32:37.489Z,17.27
2018-09-02T00:35:06.456Z,18.57
2018-09-02T00:37:35.085Z,19.60
2018-09-02T00:40:03.643Z,17.80
2018-09-02T00:42:32.183Z,17.80
2018-09-02T00:45:00.739Z,16.62
2018-09-02T00:47:29.277Z,17.10
2018-09-02T00:49:57.867Z,16.40
2018-09-02T00:52:26.392Z,15.78
2018-09-02T00:54:54.921Z,15.80
2018-09-02T00:57:23.458Z,17.02
2018-09-02T00:59:52.029Z,15.35
2018-09-02T01:02:20.591Z,14.13
2018-09-02T01:04:49.135Z,16.17
2018-09-02T01:07:17.697Z,14.90
2018-09-02T01:09:46.228Z,14.00
2018-09-02T01:12:14.797Z,13.65
2018-09-02T01:14:43.379Z,13.80
2018-09-02T01:17:11.936Z,13.43
2018-09-02T01:19:40.466Z,12.35
2018-09-02T01:22:09.023Z,12.10
2018-09-02T01:24:37.555Z,11.43
2018-09-02T01:27:06.236Z,13.22
2018-09-02T01:29:34.805Z,10.72
2018-09-02T01:32:03.400Z,11.75
2018-09-02T01:34:32.629Z,11.90
2018-09-02T01:37:01.167Z,11.15
2018-09-02T01:39:29.694Z,11.70
2018-09-02T01:41:58.241Z,9.75
2018-09-02T01:44:26.847Z,9.85
2018-09-02T01:46:55.385Z,10.43
2018-09-02T01:49:23.925Z,11.05
2018-09-02T01:51:52.468Z,11.10
2018-09-02T01:54:21.003Z,11.40
2018-09-02T01:56:49.559Z,10.95
2018-09-02T01:59:18.149Z,12.40
2018-09-02T02:01:46.703Z,12.13
2018-09-02T02:04:15.259Z,12.30
2018-09-02T02:06:43.804Z,13.60
2018-09-02T02:09:12.395Z,12.90
2018-09-02T02:11:40.921Z,12.65
2018-09-02T02:14:09.511Z,14.33
2018-09-02T02:16:38.085Z,12.03
2018-09-02T02:19:06.647Z,12.65
2018-09-02T02:21:35.185Z,14.40
2018-09-02T02:24:03.704Z,15.48
2018-09-02T02:26:32.263Z,14.25
2018-09-02T02:29:00.811Z,14.13
2018-09-02T02:31:29.340Z,14.43
2018-09-02T02:33:57.886Z,14.55
2018-09-02T02:36:26.467Z,13.98
2018-09-02T02:38:55.002Z,14.13
2018-09-02T02:41:23.602Z,14.98
2018-09-02T02:43:52.135Z,16.67
2018-09-02T02:46:20.671Z,15.85
2018-09-02T02:48:49.198Z,14.00
2018-09-02T02:51:17.711Z,13.10
2018-09-02T02:53:46.224Z,14.00
2018-09-02T02:56:14.838Z,15.95
2018-09-02T02:58:43.350Z,14.98
2018-09-02T03:01:11.913Z,14.40
2018-09-02T03:03:40.449Z,13.28
2018-09-02T03:06:08.973Z,13.80
2018-09-02T03:08:37.518Z,13.90
2018-09-02T03:11:06.066Z,13.70
2018-09-02T03:13:34.610Z,13.03
2018-09-02T03:16:03.170Z,13.10
2018-09-02T03:18:31.706Z,12.03
2018-09-02T03:21:00.248Z,11.85
2018-09-02T03:23:28.825Z,11.85
2018-09-02T03:25:57.402Z,11.95
2018-09-02T03:28:25.970Z,11.68
2018-09-02T03:30:54.513Z,10.88
2018-09-02T03:33:23.063Z,9.80
2018-09-02T03:35:51.600Z,10.55
2018-09-02T03:38:20.127Z,9.85
2018-09-02T03:40:48.664Z,10.50
2018-09-02T03:43:17.228Z,10.85
2018-09-02T03:45:45.821Z,10.30
2018-09-02T03:48:14.376Z,10.13
2018-09-02T03:50:42.892Z,10.15
2018-09-02T03:53:11.428Z,11.40
2018-09-02T03:55:39.961Z,9.43
2018-09-02T03:58:08.590Z,10.82
2018-09-02T04:00:37.136Z,10.60
2018-09-02T04:03:05.964Z,10.35
2018-09-02T04:05:34.500Z,11.20
2018-09-02T04:08:03.082Z,11.15
2018-09-02T04:10:31.639Z,11.28
2018-09-02T04:13:00.185Z,10.78
2018-09-02T04:15:28.723Z,10.03
2018-09-02T04:17:57.253Z,9.98
2018-09-02T04:20:30.031Z,10.53
2018-09-02T04:22:58.662Z,10.28
2018-09-02T04:25:27.199Z,10.15
2018-09-02T04:27:55.775Z,9.63
2018-09-02T04:30:24.346Z,10.45
2018-09-02T04:32:52.926Z,10.43
2018-09-02T04:35:21.589Z,10.68
2018-09-02T04:37:50.126Z,9.70
2018-09-02T04:40:18.748Z,9.70
2018-09-02T04:42:47.342Z,10.40
2018-09-02T04:45:15.912Z,9.80
2018-09-02T04:47:44.481Z,10.00
2018-09-02T04:50:17.595Z,11.45
2018-09-02T04:52:46.162Z,12.40
2018-09-02T04:55:14.696Z,10.80
2018-09-02T04:57:44.243Z,9.90
2018-09-02T05:00:12.905Z,11.12
2018-09-02T05:02:41.435Z,9.75
2018-09-02T05:05:10.000Z,10.20
2018-09-02T05:07:38.562Z,9.88
2018-09-02T05:10:07.309Z,11.88
2018-09-02T05:12:35.864Z,11.75
2018-09-02T05:15:04.494Z,10.85
2018-09-02T05:17:33.702Z,11.60
2018-09-02T05:20:02.241Z,11.85
2018-09-02T05:22:31.054Z,10.98
2018-09-02T05:24:59.590Z,11.57
2018-09-02T05:27:28.177Z,11.08
2018-09-02T05:29:56.753Z,11.73
2018-09-02T05:32:25.295Z,10.43
2018-09-02T05:34:53.820Z,12.25
2018-09-02T05:37:22.417Z,11.60
2018-09-02T05:39:50.957Z,12.35
2018-09-02T05:42:19.527Z,12.15
2018-09-02T05:44:48.075Z,12.00
2018-09-02T05:47:16.671Z,11.80
2018-09-02T05:49:45.196Z,11.93
2018-09-02T05:52:13.691Z,12.50
2018-09-02T05:54:42.249Z,12.43
2018-09-02T05:57:10.811Z,11.93
2018-09-02T05:59:39.358Z,13.72
2018-09-02T06:02:08.012Z,12.47
2018-09-02T06:04:36.559Z,12.90
2018-09-02T06:07:05.094Z,12.03
2018-09-02T06:09:33.652Z,12.25
2018-09-02T06:12:02.195Z,11.57
2018-09-02T06:14:30.877Z,12.70
2018-09-02T06:16:59.438Z,12.13
2018-09-02T06:19:27.991Z,12.53
2018-09-02T06:21:56.528Z,11.53
2018-09-02T06:24:25.047Z,12.25
2018-09-02T06:26:53.608Z,12.25
2018-09-02T06:29:22.194Z,10.60
2018-09-02T06:31:50.757Z,11.68
2018-09-02T06:34:19.300Z,12.37
2018-09-02T06:36:47.919Z,10.85
2018-09-02T06:39:16.459Z,11.48
2018-09-02T06:41:44.997Z,11.83
2018-09-02T06:44:13.566Z,11.70
2018-09-02T06:46:42.168Z,11.70
2018-09-02T06:49:10.717Z,12.30
2018-09-02T06:51:39.253Z,11.70
2018-09-02T06:54:07.905Z,12.23
2018-09-02T06:56:36.439Z,12.00
2018-09-02T06:59:05.050Z,12.33
2018-09-02T07:01:33.607Z,12.40
2018-09-02T07:04:02.161Z,13.35
2018-09-02T07:06:30.754Z,12.35
2018-09-02T07:08:59.276Z,12.70
2018-09-02T07:11:27.803Z,12.60
2018-09-02T07:13:56.414Z,13.20
2018-09-02T07:16:24.963Z,12.30
2018-09-02T07:18:53.521Z,12.00
2018-09-02T07:21:22.084Z,11.73
2018-09-02T07:23:50.607Z,12.07
2018-09-02T07:26:19.191Z,12.98
2018-09-02T07:28:47.788Z,11.38
2018-09-02T07:31:16.503Z,13.18
2018-09-02T07:33:45.021Z,10.45
2018-09-02T07:36:13.557Z,11.80
2018-09-02T07:38:42.191Z,11.35
2018-09-02T07:41:10.750Z,10.45
2018-09-02T07:43:39.360Z,11.35
2018-09-02T07:46:07.879Z,10.35
2018-09-02T07:48:36.406Z,11.22
2018-09-02T07:51:05.101Z,11.22
2018-09-02T07:53:33.625Z,9.98
2018-09-02T07:56:02.264Z,10.72
2018-09-02T07:58:30.876Z,10.25
2018-09-02T08:00:59.479Z,10.60
2018-09-02T08:03:28.139Z,10.20
2018-09-02T08:05:56.720Z,10.05
2018-09-02T08:08:25.326Z,10.68
2018-09-02T08:10:53.908Z,10.45
2018-09-02T08:13:22.484Z,12.95
2018-09-02T08:15:51.243Z,14.47
2018-09-02T08:18:20.232Z,13.60
2018-09-02T08:20:48.840Z,13.58
2018-09-02T08:23:17.473Z,14.90
2018-09-02T08:25:46.054Z,13.88
2018-09-02T08:28:14.887Z,14.83
2018-09-02T08:30:43.521Z,16.10
2018-09-02T08:33:12.255Z,16.05
2018-09-02T08:35:40.888Z,21.80
2018-09-02T08:38:09.676Z,23.80
2018-09-02T08:40:38.230Z,23.90
2018-09-02T08:43:07.385Z,16.67
2018-09-02T08:45:35.945Z,15.72
2018-09-02T08:48:04.547Z,16.52
2018-09-02T08:50:33.314Z,15.50
2018-09-02T08:53:01.808Z,16.95
2018-09-02T08:55:30.403Z,15.72
2018-09-02T08:57:58.949Z,14.90
2018-09-02T09:00:27.562Z,16.60
2018-09-02T09:02:56.238Z,17.10
2018-09-02T09:05:24.808Z,16.12
2018-09-02T09:07:53.615Z,16.90
2018-09-02T09:10:22.116Z,15.55
2018-09-02T09:12:50.684Z,13.25
2018-09-02T09:15:19.305Z,14.75
2018-09-02T09:17:47.934Z,15.40
2018-09-02T09:20:16.542Z,14.65
2018-09-02T09:22:45.174Z,13.55
2018-09-02T09:25:13.839Z,16.25
2018-09-02T09:27:42.446Z,15.23
2018-09-02T09:30:11.083Z,16.93
2018-09-02T09:32:40.216Z,17.15
2018-09-02T09:35:08.898Z,17.80
2018-09-02T09:37:37.437Z,16.10
2018-09-02T09:40:06.134Z,17.95
2018-09-02T09:42:34.791Z,17.32
2018-09-02T09:45:03.423Z,18.07
2018-09-02T09:47:31.956Z,19.35
2018-09-02T09:50:00.541Z,17.85
2018-09-02T09:52:29.096Z,20.40
2018-09-02T09:54:57.609Z,21.30
2018-09-02T09:57:26.176Z,19.65
2018-09-02T09:59:54.758Z,21.15
2018-09-02T10:02:23.419Z,21.87
2018-09-02T10:04:52.075Z,22.15
2018-09-02T10:07:20.633Z,23.12
2018-09-02T10:09:49.218Z,20.32
2018-09-02T10:12:17.759Z,20.32
2018-09-02T10:14:46.315Z,21.17
2018-09-02T10:17:14.894Z,22.02
2018-09-02T10:19:43.442Z,22.52
2018-09-02T10:22:11.978Z,21.45
2018-09-02T10:24:40.534Z,20.35
2018-09-02T10:27:09.092Z,22.87
2018-09-02T10:29:38.070Z,21.12
2018-09-02T10:32:06.810Z,21.80
2018-09-02T10:34:35.425Z,21.05
2018-09-02T10:37:04.031Z,22.98
2018-09-02T10:39:32.601Z,24.07
2018-09-02T10:42:01.258Z,22.82
2018-09-02T10:44:29.880Z,22.35
2018-09-02T10:46:58.654Z,24.07
2018-09-02T10:49:27.318Z,23.65
2018-09-02T10:51:56.369Z,24.35
2018-09-02T10:54:24.935Z,20.52
2018-09-02T10:56:53.528Z,25.10
2018-09-02T10:59:22.083Z,25.50
2018-09-02T11:01:50.741Z,24.52
2018-09-02T11:04:19.287Z,25.60
2018-09-02T11:06:47.878Z,25.17
2018-09-02T11:09:16.399Z,23.77
2018-09-02T11:11:44.952Z,24.52
2018-09-02T11:14:13.546Z,27.58
2018-09-02T11:16:45.153Z,28.65
2018-09-02T11:19:13.795Z,28.52
2018-09-02T11:21:42.333Z,28.07
2018-09-02T11:24:10.873Z,27.50
2018-09-02T11:26:39.410Z,29.60
2018-09-02T11:29:08.059Z,30.00
2018-09-02T11:31:36.620Z,28.62
2018-09-02T11:34:05.275Z,28.30
2018-09-02T11:36:33.812Z,29.37
2018-09-02T11:39:02.423Z,29.95
2018-09-02T11:41:30.962Z,28.40
2018-09-02T11:43:59.493Z,30.75
2018-09-02T11:46:28.106Z,26.75
2018-09-02T11:48:56.680Z,29.27
2018-09-02T11:51:25.223Z,27.62
2018-09-02T11:53:53.788Z,28.15
2018-09-02T11:56:22.339Z,31.42
2018-09-02T11:58:50.914Z,32.33
2018-09-02T12:01:19.520Z,30.65
2018-09-02T12:03:48.266Z,34.78
2018-09-02T12:06:16.886Z,32.38
2018-09-02T12:08:45.829Z,33.95
2018-09-02T12:11:14.479Z,34.00
2018-09-02T12:13:43.069Z,35.40
2018-09-02T12:16:11.781Z,32.85
2018-09-02T12:18:40.445Z,34.92
2018-09-02T12:21:09.083Z,35.85
2018-09-02T12:23:37.668Z,32.03
2018-09-02T12:26:06.321Z,31.48
2018-09-02T12:28:34.997Z,34.18
2018-09-02T12:31:04.716Z,33.90
2018-09-02T12:33:33.328Z,34.20
2018-09-02T12:36:02.071Z,33.60
2018-09-02T12:38:30.669Z,35.63
2018-09-02T12:41:00.087Z,34.58
2018-09-02T12:43:30.757Z,35.45
2018-09-02T12:45:59.518Z,36.42
2018-09-02T12:48:28.285Z,36.13
2018-09-02T12:50:57.373Z,36.08
2018-09-02T12:53:26.094Z,39.18
2018-09-02T12:55:54.757Z,37.40
2018-09-02T12:58:23.502Z,34.60
2018-09-02T13:00:52.499Z,39.08
2018-09-02T13:03:21.053Z,38.55
2018-09-02T13:05:49.589Z,35.03
2018-09-02T13:08:22.468Z,37.25
2018-09-02T13:10:56.117Z,37.65
2018-09-02T13:13:24.835Z,37.25
2018-09-02T13:15:53.453Z,36.58
2018-09-02T13:18:22.045Z,36.95
2018-09-02T13:20:50.615Z,33.33
2018-09-02T13:23:19.186Z,36.28
2018-09-02T13:25:47.782Z,35.45
2018-09-02T13:28:16.394Z,35.13
2018-09-02T13:30:44.925Z,34.88
2018-09-02T13:33:13.460Z,39.58
2018-09-02T13:35:42.069Z,35.80
2018-09-02T13:38:10.675Z,37.03
2018-09-02T13:40:39.216Z,36.95
2018-09-02T13:43:07.782Z,37.08
2018-09-02T13:45:36.352Z,37.35
2018-09-02T13:48:04.925Z,37.93
2018-09-02T13:50:33.502Z,35.92
2018-09-02T13:53:02.033Z,37.28
2018-09-02T13:55:30.576Z,33.23
2018-09-02T13:57:59.112Z,36.50
2018-09-02T14:00:27.695Z,34.43
2018-09-02T14:02:56.274Z,32.80
2018-09-02T14:05:24.808Z,39.08
2018-09-02T14:07:53.452Z,37.53
2018-09-02T14:10:22.011Z,37.88
2018-09-02T14:12:50.605Z,36.58
2018-09-02T14:15:19.179Z,36.67
2018-09-02T14:17:47.754Z,34.90
2018-09-02T14:20:16.316Z,37.80
2018-09-02T14:22:44.887Z,32.10
2018-09-02T14:25:13.383Z,39.27
2018-09-02T14:27:41.946Z,34.10
2018-09-02T14:30:10.492Z,36.90
2018-09-02T14:32:39.059Z,36.80
2018-09-02T14:35:07.732Z,36.60
2018-09-02T14:37:36.256Z,32.77
2018-09-02T14:40:04.856Z,37.13
2018-09-02T14:42:33.445Z,34.00
2018-09-02T14:45:02.017Z,37.33
2018-09-02T14:47:30.586Z,36.23
2018-09-02T14:49:59.234Z,40.10
2018-09-02T14:52:27.758Z,35.70
2018-09-02T14:54:56.399Z,36.13
2018-09-02T14:57:24.956Z,34.50
2018-09-02T14:59:53.558Z,37.87
2018-09-02T15:02:22.114Z,36.97
2018-09-02T15:04:50.726Z,35.50
2018-09-02T15:07:19.293Z,37.83
2018-09-02T15:09:47.894Z,37.80
2018-09-02T15:12:16.496Z,37.57
2018-09-02T15:14:45.016Z,35.37
2018-09-02T15:17:13.550Z,37.37
2018-09-02T15:19:42.098Z,38.60
2018-09-02T15:22:10.655Z,35.33
2018-09-02T15:24:39.216Z,38.03
2018-09-02T15:27:07.783Z,41.13
2018-09-02T15:29:36.369Z,35.90
2018-09-02T15:32:05.295Z,37.87
2018-09-02T15:34:33.855Z,37.30
2018-09-02T15:37:02.377Z,39.03
2018-09-02T15:39:31.006Z,41.60
2018-09-02T15:41:59.493Z,44.77
2018-09-02T15:44:28.127Z,44.50
2018-09-02T15:46:56.677Z,38.60
2018-09-02T15:49:25.238Z,37.43
2018-09-02T15:51:53.814Z,39.43
2018-09-02T15:54:22.481Z,42.70
2018-09-02T15:56:51.148Z,41.43
2018-09-02T15:59:19.712Z,41.57
2018-09-02T16:01:48.263Z,41.50
2018-09-02T16:04:17.094Z,46.60
2018-09-02T16:06:45.647Z,41.73
2018-09-02T16:09:14.425Z,44.20
2018-09-02T16:11:42.976Z,43.50
2018-09-02T16:14:11.533Z,41.00
2018-09-02T16:16:40.575Z,39.17
2018-09-02T16:19:09.117Z,40.10
2018-09-02T16:21:37.857Z,39.93
2018-09-02T16:24:06.413Z,40.20
2018-09-02T16:26:34.996Z,40.60
2018-09-02T16:29:03.573Z,37.70
2018-09-02T16:31:32.181Z,38.63
2018-09-02T16:34:00.788Z,37.50
2018-09-02T16:36:29.364Z,32.70
2018-09-02T16:38:57.959Z,40.03
2018-09-02T16:41:26.681Z,36.87
2018-09-02T16:43:55.176Z,37.00
2018-09-02T16:46:23.897Z,33.57
2018-09-02T16:48:52.514Z,34.90
2018-09-02T16:51:21.087Z,38.23
2018-09-02T16:53:49.612Z,36.37
2018-09-02T16:56:18.154Z,33.80
2018-09-02T16:58:46.714Z,34.83
2018-09-02T17:01:15.272Z,36.87
2018-09-02T17:03:47.639Z,37.27
2018-09-02T17:06:17.561Z,37.17
2018-09-02T17:08:46.082Z,35.10
2018-09-02T17:11:14.625Z,37.23
2018-09-02T17:13:43.243Z,37.07
2018-09-02T17:16:11.874Z,42.60
2018-09-02T17:18:40.458Z,42.07
2018-09-02T17:21:09.042Z,42.30
2018-09-02T17:23:37.609Z,37.00
2018-09-02T17:26:06.304Z,36.63
2018-09-02T17:28:34.830Z,37.97
2018-09-02T17:31:03.443Z,35.63
2018-09-02T17:33:31.973Z,37.67
2018-09-02T17:36:00.509Z,34.87
2018-09-02T17:38:29.160Z,34.30
2018-09-02T17:40:57.720Z,35.67
2018-09-02T17:43:26.331Z,37.50
2018-09-02T17:45:54.910Z,33.27
2018-09-02T17:48:23.473Z,36.90
2018-09-02T17:50:52.061Z,35.07
2018-09-02T17:53:20.653Z,37.67
2018-09-02T17:55:49.277Z,35.17
2018-09-02T17:58:17.830Z,33.00
2018-09-02T18:00:49.397Z,36.40
2018-09-02T18:03:17.979Z,37.83
2018-09-02T18:05:46.596Z,39.90
2018-09-02T18:08:15.204Z,38.53
2018-09-02T18:10:43.854Z,35.10
2018-09-02T18:13:12.388Z,32.00
2018-09-02T18:15:40.928Z,32.47
2018-09-02T18:18:09.468Z,31.57
2018-09-02T18:20:38.088Z,37.93
2018-09-02T18:23:06.627Z,35.90
2018-09-02T18:25:35.180Z,36.10
2018-09-02T18:28:06.076Z,32.40
2018-09-02T18:30:34.629Z,41.93
2018-09-02T18:33:03.251Z,39.27
2018-09-02T18:35:32.335Z,37.60
2018-09-02T18:38:00.903Z,33.57
2018-09-02T18:40:29.494Z,35.93
2018-09-02T18:42:58.049Z,36.33
2018-09-02T18:45:26.735Z,34.90
2018-09-02T18:47:55.281Z,33.10
2018-09-02T18:50:24.004Z,33.80
2018-09-02T18:52:52.615Z,34.27
2018-09-02T18:55:21.214Z,32.07
2018-09-02T18:57:49.848Z,32.90
2018-09-02T19:00:18.471Z,34.77
2018-09-02T19:02:48.894Z,33.60
2018-09-02T19:05:17.415Z,31.60
2018-09-02T19:07:45.955Z,35.67
2018-09-02T19:10:14.545Z,35.07
2018-09-02T19:12:43.092Z,33.42
2018-09-02T19:15:11.701Z,38.93
2018-09-02T19:17:40.338Z,42.90
2018-09-02T19:20:08.928Z,36.75
2018-09-02T19:22:37.487Z,37.58
2018-09-02T19:25:06.231Z,37.37
2018-09-02T19:27:34.801Z,36.23
2018-09-02T19:30:03.424Z,32.55
2018-09-02T19:32:32.003Z,33.83
2018-09-02T19:35:01.534Z,30.83
2018-09-02T19:37:30.566Z,32.87
2018-09-02T19:39:59.165Z,35.43
2018-09-02T19:42:27.742Z,34.33
2018-09-02T19:44:56.646Z,34.15
2018-09-02T19:47:25.272Z,33.05
2018-09-02T19:49:53.836Z,33.55
2018-09-02T19:52:22.416Z,33.90
2018-09-02T19:54:50.969Z,30.05
2018-09-02T19:57:19.567Z,36.00
2018-09-02T19:59:48.136Z,30.65
2018-09-02T20:02:16.680Z,31.70
2018-09-02T20:04:45.233Z,30.97
2018-09-02T20:07:13.869Z,34.38
2018-09-02T20:09:42.446Z,30.00
2018-09-02T20:12:11.111Z,32.48
2018-09-02T20:14:39.675Z,29.05
2018-09-02T20:17:08.245Z,30.50
2018-09-02T20:19:36.854Z,30.70
2018-09-02T20:22:07.431Z,29.80
2018-09-02T20:24:36.053Z,29.35
2018-09-02T20:27:04.610Z,31.23
2018-09-02T20:29:33.148Z,30.25
2018-09-02T20:32:01.771Z,31.12
2018-09-02T20:34:30.344Z,33.73
2018-09-02T20:36:58.958Z,36.25
2018-09-02T20:39:27.526Z,38.60
2018-09-02T20:41:56.071Z,38.65
2018-09-02T20:44:24.639Z,31.90
2018-09-02T20:46:53.187Z,37.83
2018-09-02T20:49:21.764Z,40.30
2018-09-02T20:51:50.309Z,36.77
2018-09-02T20:54:18.879Z,36.10
2018-09-02T20:56:47.459Z,39.35
2018-09-02T20:59:15.999Z,38.95
2018-09-02T21:01:44.546Z,37.17
2018-09-02T21:04:13.259Z,42.90
2018-09-02T21:06:41.809Z,40.40
2018-09-02T21:09:13.170Z,40.35
2018-09-02T21:11:42.701Z,37.95
2018-09-02T21:14:11.272Z,38.05
2018-09-02T21:16:39.797Z,37.73
2018-09-02T21:19:08.426Z,36.68
2018-09-02T21:21:36.995Z,37.28
2018-09-02T21:24:05.721Z,36.75
2018-09-02T21:26:34.309Z,35.08
2018-09-02T21:29:02.819Z,36.30
2018-09-02T21:31:31.411Z,37.40
2018-09-02T21:34:00.034Z,34.18
2018-09-02T21:36:28.739Z,36.33
2018-09-02T21:38:57.374Z,34.65
2018-09-02T21:41:25.947Z,36.88
2018-09-02T21:43:54.554Z,36.15
2018-09-02T21:46:23.105Z,33.75
2018-09-02T21:48:51.652Z,33.10
2018-09-02T21:51:20.291Z,37.75
2018-09-02T21:53:48.820Z,35.98
2018-09-02T21:56:17.392Z,32.70
2018-09-02T21:58:45.925Z,34.43
2018-09-02T22:01:14.515Z,31.93
2018-09-02T22:03:43.033Z,31.50
2018-09-02T22:06:11.571Z,30.77
2018-09-02T22:08:40.123Z,31.25
2018-09-02T22:11:08.680Z,32.55
2018-09-02T22:13:37.235Z,29.52
2018-09-02T22:16:06.017Z,32.88
2018-09-02T22:18:34.545Z,32.75
2018-09-02T22:21:03.077Z,32.23
2018-09-02T22:23:31.678Z,31.85
2018-09-02T22:26:00.201Z,29.05
2018-09-02T22:28:28.756Z,28.83
2018-09-02T22:30:57.285Z,27.75
2018-09-02T22:33:25.837Z,28.95
2018-09-02T22:35:54.398Z,28.20
2018-09-02T22:38:23.097Z,29.00
2018-09-02T22:40:51.696Z,27.93
2018-09-02T22:43:20.434Z,29.23
2018-09-02T22:45:48.967Z,31.30
2018-09-02T22:48:17.573Z,25.48
2018-09-02T22:50:46.120Z,31.25
2018-09-02T22:53:14.661Z,27.00
2018-09-02T22:55:43.200Z,41.23
2018-09-02T22:58:11.713Z,33.58
2018-09-02T23:00:40.236Z,31.15
2018-09-02T23:03:08.785Z,26.40
2018-09-02T23:05:37.338Z,29.25
2018-09-02T23:08:05.899Z,29.90
2018-09-02T23:10:34.454Z,30.40
2018-09-02T23:13:03.017Z,25.97
2018-09-02T23:15:31.577Z,26.82
2018-09-02T23:18:00.199Z,27.70
2018-09-02T23:20:28.799Z,29.10
2018-09-02T23:22:57.392Z,26.75
2018-09-02T23:25:26.019Z,26.07
2018-09-02T23:27:54.554Z,27.25
2018-09-02T23:30:23.084Z,30.12
2018-09-02T23:32:51.615Z,27.93
2018-09-02T23:35:20.172Z,35.17
2018-09-02T23:37:48.727Z,31.55
2018-09-02T23:40:17.268Z,31.77
2018-09-02T23:42:45.896Z,29.70
2018-09-02T23:45:14.438Z,34.80
2018-09-02T23:47:42.988Z,31.70
2018-09-02T23:50:11.576Z,33.23
2018-09-02T23:52:40.131Z,33.83
2018-09-02T23:55:08.717Z,30.48
2018-09-02T23:57:37.259Z,34.25
